sensor_id;sensor_type;location;lat;lon;timestamp;pressure;altitude;pressure_sealevel;temperature;humidity
68329;BME280;55182;56.864;60.554;2023-08-31T00:00:22;72860.69;;;-143.60;100.00
68329;BME280;55182;56.864;60.554;2023-08-31T00:02:47;72864.69;;;-143.60;100.00
68329;BME280;55182;56.864;60.554;2023-08-31T00:05:13;72870.72;;;-143.60;100.00
68329;BME280;55182;56.864;60.554;2023-08-31T00:07:38;72870.72;;;-143.60;100.00
68329;BME280;55182;56.864;60.554;2023-08-31T00:10:04;72864.69;;;-143.60;100.00
68329;BME280;55182;56.864;60.554;2023-08-31T00:12:30;72872.72;;;-143.60;100.00
68329;BME280;55182;56.864;60.554;2023-08-31T00:14:55;72866.72;;;-143.60;100.00
68329;BME280;55182;56.864;60.554;2023-08-31T00:17:21;72872.72;;;-143.60;100.00
68329;BME280;55182;56.864;60.554;2023-08-31T00:19:46;72880.75;;;-143.60;100.00
68329;BME280;55182;56.864;60.554;2023-08-31T00:22:11;72880.75;;;-143.60;100.00
68329;BME280;55182;56.864;60.554;2023-08-31T00:24:37;72888.78;;;-143.60;100.00
68329;BME280;55182;56.864;60.554;2023-08-31T00:27:03;72878.75;;;-143.60;100.00
68329;BME280;55182;56.864;60.554;2023-08-31T00:29:29;72886.78;;;-143.60;100.00
68329;BME280;55182;56.864;60.554;2023-08-31T00:31:54;72892.81;;;-143.60;100.00
68329;BME280;55182;56.864;60.554;2023-08-31T00:34:20;72896.81;;;-143.60;100.00
68329;BME280;55182;56.864;60.554;2023-08-31T00:36:45;72900.84;;;-143.60;100.00
68329;BME280;55182;56.864;60.554;2023-08-31T00:39:11;72898.84;;;-143.60;100.00
68329;BME280;55182;56.864;60.554;2023-08-31T00:41:38;72900.84;;;-143.60;100.00
68329;BME280;55182;56.864;60.554;2023-08-31T00:44:05;72896.81;;;-143.60;100.00
68329;BME280;55182;56.864;60.554;2023-08-31T00:46:31;72906.88;;;-143.60;100.00
68329;BME280;55182;56.864;60.554;2023-08-31T00:48:57;72906.88;;;-143.60;100.00
68329;BME280;55182;56.864;60.554;2023-08-31T00:51:22;72912.88;;;-143.60;100.00
68329;BME280;55182;56.864;60.554;2023-08-31T00:53:48;72920.91;;;-143.60;100.00
68329;BME280;55182;56.864;60.554;2023-08-31T00:56:16;72924.94;;;-143.60;100.00
68329;BME280;55182;56.864;60.554;2023-08-31T00:58:42;72924.94;;;-143.60;100.00
68329;BME280;55182;56.864;60.554;2023-08-31T01:01:11;72928.94;;;-143.60;100.00
68329;BME280;55182;56.864;60.554;2023-08-31T01:06:12;72920.91;;;-143.60;100.00
68329;BME280;55182;56.864;60.554;2023-08-31T01:08:43;72932.97;;;-143.60;100.00
68329;BME280;55182;56.864;60.554;2023-08-31T01:11:19;72934.97;;;-143.60;100.00
68329;BME280;55182;56.864;60.554;2023-08-31T01:13:49;72941.00;;;-143.60;100.00
68329;BME280;55182;56.864;60.554;2023-08-31T01:16:16;72943.00;;;-143.60;100.00
68329;BME280;55182;56.864;60.554;2023-08-31T01:18:42;72943.00;;;-143.60;100.00
68329;BME280;55182;56.864;60.554;2023-08-31T01:21:11;72949.03;;;-143.60;100.00
68329;BME280;55182;56.864;60.554;2023-08-31T01:26:10;72957.06;;;-143.60;100.00
68329;BME280;55182;56.864;60.554;2023-08-31T01:28:36;72969.09;;;-143.60;100.00
68329;BME280;55182;56.864;60.554;2023-08-31T01:31:05;72969.09;;;-143.60;100.00
68329;BME280;55182;56.864;60.554;2023-08-31T01:33:30;72977.13;;;-143.60;100.00
68329;BME280;55182;56.864;60.554;2023-08-31T01:35:56;72969.09;;;-143.60;100.00
68329;BME280;55182;56.864;60.554;2023-08-31T01:38:25;72969.09;;;-143.60;100.00
68329;BME280;55182;56.864;60.554;2023-08-31T01:40:54;72965.09;;;-143.60;100.00
68329;BME280;55182;56.864;60.554;2023-08-31T01:43:21;72961.06;;;-143.60;100.00
68329;BME280;55182;56.864;60.554;2023-08-31T01:45:47;72965.09;;;-143.60;100.00
68329;BME280;55182;56.864;60.554;2023-08-31T01:48:16;72951.03;;;-143.60;100.00
68329;BME280;55182;56.864;60.554;2023-08-31T01:50:41;72947.03;;;-143.60;100.00
68329;BME280;55182;56.864;60.554;2023-08-31T01:53:07;72949.03;;;-143.60;100.00
68329;BME280;55182;56.864;60.554;2023-08-31T01:55:32;72945.00;;;-143.60;100.00
68329;BME280;55182;56.864;60.554;2023-08-31T01:57:59;72947.03;;;-143.60;100.00
68329;BME280;55182;56.864;60.554;2023-08-31T02:00:26;72949.03;;;-143.60;100.00
68329;BME280;55182;56.864;60.554;2023-08-31T02:02:52;72941.00;;;-143.60;100.00
68329;BME280;55182;56.864;60.554;2023-08-31T02:05:17;72939.00;;;-143.60;100.00
68329;BME280;55182;56.864;60.554;2023-08-31T02:07:43;72932.97;;;-143.60;100.00
68329;BME280;55182;56.864;60.554;2023-08-31T02:10:08;72939.00;;;-143.60;100.00
68329;BME280;55182;56.864;60.554;2023-08-31T02:12:34;72936.97;;;-143.60;100.00
68329;BME280;55182;56.864;60.554;2023-08-31T02:14:59;72928.94;;;-143.60;100.00
68329;BME280;55182;56.864;60.554;2023-08-31T02:17:25;72926.94;;;-143.60;100.00
68329;BME280;55182;56.864;60.554;2023-08-31T02:19:50;72912.88;;;-143.60;100.00
68329;BME280;55182;56.864;60.554;2023-08-31T02:22:16;72912.88;;;-143.60;100.00
68329;BME280;55182;56.864;60.554;2023-08-31T02:24:41;72906.88;;;-143.60;100.00
68329;BME280;55182;56.864;60.554;2023-08-31T02:27:07;72908.88;;;-143.60;100.00
68329;BME280;55182;56.864;60.554;2023-08-31T02:29:32;72902.84;;;-143.60;100.00
68329;BME280;55182;56.864;60.554;2023-08-31T02:31:57;72902.84;;;-143.60;100.00
68329;BME280;55182;56.864;60.554;2023-08-31T02:34:23;72896.81;;;-143.60;100.00
68329;BME280;55182;56.864;60.554;2023-08-31T02:36:49;72900.84;;;-143.60;100.00
68329;BME280;55182;56.864;60.554;2023-08-31T02:39:14;72900.84;;;-143.60;100.00
68329;BME280;55182;56.864;60.554;2023-08-31T02:41:40;72908.88;;;-143.60;100.00
68329;BME280;55182;56.864;60.554;2023-08-31T02:44:06;72896.81;;;-143.60;100.00
68329;BME280;55182;56.864;60.554;2023-08-31T02:46:36;72896.81;;;-143.60;100.00
68329;BME280;55182;56.864;60.554;2023-08-31T02:49:02;72892.81;;;-143.60;100.00
68329;BME280;55182;56.864;60.554;2023-08-31T02:51:27;72888.78;;;-143.60;100.00
68329;BME280;55182;56.864;60.554;2023-08-31T02:53:53;72884.78;;;-143.60;100.00
68329;BME280;55182;56.864;60.554;2023-08-31T02:56:18;72884.78;;;-143.60;100.00
68329;BME280;55182;56.864;60.554;2023-08-31T02:58:44;72882.75;;;-143.60;100.00
68329;BME280;55182;56.864;60.554;2023-08-31T03:01:10;72880.75;;;-143.60;100.00
68329;BME280;55182;56.864;60.554;2023-08-31T03:03:36;72880.75;;;-143.60;100.00
68329;BME280;55182;56.864;60.554;2023-08-31T03:06:02;72880.75;;;-143.60;100.00
68329;BME280;55182;56.864;60.554;2023-08-31T03:08:27;72880.75;;;-143.60;100.00
68329;BME280;55182;56.864;60.554;2023-08-31T03:10:53;72874.75;;;-143.60;100.00
68329;BME280;55182;56.864;60.554;2023-08-31T03:13:19;72894.81;;;-143.60;100.00
68329;BME280;55182;56.864;60.554;2023-08-31T03:15:44;72892.81;;;-143.60;100.00
68329;BME280;55182;56.864;60.554;2023-08-31T03:18:10;72894.81;;;-143.60;100.00
68329;BME280;55182;56.864;60.554;2023-08-31T03:20:35;72888.78;;;-143.60;100.00
68329;BME280;55182;56.864;60.554;2023-08-31T03:23:01;72876.75;;;-143.60;100.00
68329;BME280;55182;56.864;60.554;2023-08-31T03:25:27;72872.72;;;-143.60;100.00
68329;BME280;55182;56.864;60.554;2023-08-31T03:27:52;72868.72;;;-143.60;100.00
68329;BME280;55182;56.864;60.554;2023-08-31T03:30:18;72858.66;;;-143.60;100.00
68329;BME280;55182;56.864;60.554;2023-08-31T03:32:43;72856.66;;;-143.60;100.00
68329;BME280;55182;56.864;60.554;2023-08-31T03:35:09;72854.66;;;-143.60;100.00
68329;BME280;55182;56.864;60.554;2023-08-31T03:37:35;72848.63;;;-143.60;100.00
68329;BME280;55182;56.864;60.554;2023-08-31T03:40:01;72844.63;;;-143.60;100.00
68329;BME280;55182;56.864;60.554;2023-08-31T03:42:28;72844.63;;;-143.60;100.00
68329;BME280;55182;56.864;60.554;2023-08-31T03:44:53;72838.59;;;-143.60;100.00
68329;BME280;55182;56.864;60.554;2023-08-31T03:47:19;72840.59;;;-143.60;100.00
68329;BME280;55182;56.864;60.554;2023-08-31T03:49:45;72836.59;;;-143.60;100.00
68329;BME280;55182;56.864;60.554;2023-08-31T03:52:10;72838.59;;;-143.60;100.00
68329;BME280;55182;56.864;60.554;2023-08-31T03:54:35;72836.59;;;-143.60;100.00
68329;BME280;55182;56.864;60.554;2023-08-31T03:57:01;72832.56;;;-143.60;100.00
68329;BME280;55182;56.864;60.554;2023-08-31T03:59:26;72832.56;;;-143.60;100.00
68329;BME280;55182;56.864;60.554;2023-08-31T04:01:52;72830.56;;;-143.60;100.00
68329;BME280;55182;56.864;60.554;2023-08-31T04:04:18;72826.56;;;-143.60;100.00
68329;BME280;55182;56.864;60.554;2023-08-31T04:06:43;72820.53;;;-143.60;100.00
68329;BME280;55182;56.864;60.554;2023-08-31T04:09:08;72822.53;;;-143.60;100.00
68329;BME280;55182;56.864;60.554;2023-08-31T04:11:34;72826.56;;;-143.60;100.00
68329;BME280;55182;56.864;60.554;2023-08-31T04:13:59;72826.56;;;-143.60;100.00
68329;BME280;55182;56.864;60.554;2023-08-31T04:16:25;72822.53;;;-143.60;100.00
68329;BME280;55182;56.864;60.554;2023-08-31T04:18:51;72834.56;;;-143.60;100.00
68329;BME280;55182;56.864;60.554;2023-08-31T04:21:17;72834.56;;;-143.60;100.00
68329;BME280;55182;56.864;60.554;2023-08-31T04:23:43;72836.59;;;-143.60;100.00
68329;BME280;55182;56.864;60.554;2023-08-31T04:26:11;72846.63;;;-143.60;100.00
68329;BME280;55182;56.864;60.554;2023-08-31T04:28:37;72854.66;;;-143.60;100.00
68329;BME280;55182;56.864;60.554;2023-08-31T04:31:04;72842.63;;;-143.60;100.00
68329;BME280;55182;56.864;60.554;2023-08-31T04:33:29;72846.63;;;-143.60;100.00
68329;BME280;55182;56.864;60.554;2023-08-31T04:35:55;72844.63;;;-143.60;100.00
68329;BME280;55182;56.864;60.554;2023-08-31T04:38:20;72852.66;;;-143.60;100.00
68329;BME280;55182;56.864;60.554;2023-08-31T04:40:46;72850.66;;;-143.60;100.00
68329;BME280;55182;56.864;60.554;2023-08-31T04:43:11;72856.66;;;-143.60;100.00
68329;BME280;55182;56.864;60.554;2023-08-31T04:45:37;72860.69;;;-143.60;100.00
68329;BME280;55182;56.864;60.554;2023-08-31T04:48:02;72862.69;;;-143.60;100.00
68329;BME280;55182;56.864;60.554;2023-08-31T04:50:28;72860.69;;;-143.60;100.00
68329;BME280;55182;56.864;60.554;2023-08-31T04:52:53;72856.66;;;-143.60;100.00
68329;BME280;55182;56.864;60.554;2023-08-31T04:55:21;72864.69;;;-143.60;100.00
68329;BME280;55182;56.864;60.554;2023-08-31T04:57:47;72860.69;;;-143.60;100.00
68329;BME280;55182;56.864;60.554;2023-08-31T05:00:13;72856.66;;;-143.60;100.00
68329;BME280;55182;56.864;60.554;2023-08-31T05:02:39;72866.72;;;-143.60;100.00
68329;BME280;55182;56.864;60.554;2023-08-31T05:05:05;72848.63;;;-143.60;100.00
68329;BME280;55182;56.864;60.554;2023-08-31T05:07:31;72852.66;;;-143.60;100.00
68329;BME280;55182;56.864;60.554;2023-08-31T05:09:57;72850.66;;;-143.60;100.00
68329;BME280;55182;56.864;60.554;2023-08-31T05:12:22;72850.66;;;-143.60;100.00
68329;BME280;55182;56.864;60.554;2023-08-31T05:14:48;72850.66;;;-143.60;100.00
68329;BME280;55182;56.864;60.554;2023-08-31T05:17:13;72852.66;;;-143.60;100.00
68329;BME280;55182;56.864;60.554;2023-08-31T05:19:38;72848.63;;;-143.60;100.00
68329;BME280;55182;56.864;60.554;2023-08-31T05:22:05;72844.63;;;-143.60;100.00
68329;BME280;55182;56.864;60.554;2023-08-31T05:24:31;72840.59;;;-143.60;100.00
68329;BME280;55182;56.864;60.554;2023-08-31T05:26:57;72840.59;;;-143.60;100.00
68329;BME280;55182;56.864;60.554;2023-08-31T05:29:22;72838.59;;;-143.60;100.00
68329;BME280;55182;56.864;60.554;2023-08-31T05:31:48;72840.59;;;-143.60;100.00
68329;BME280;55182;56.864;60.554;2023-08-31T05:34:16;72840.59;;;-143.60;100.00
68329;BME280;55182;56.864;60.554;2023-08-31T05:36:42;72832.56;;;-143.60;100.00
68329;BME280;55182;56.864;60.554;2023-08-31T05:39:08;72824.53;;;-143.60;100.00
68329;BME280;55182;56.864;60.554;2023-08-31T05:41:33;72818.53;;;-143.60;100.00
68329;BME280;55182;56.864;60.554;2023-08-31T05:43:59;72812.50;;;-143.60;100.00
68329;BME280;55182;56.864;60.554;2023-08-31T05:46:24;72808.47;;;-143.60;100.00
68329;BME280;55182;56.864;60.554;2023-08-31T05:48:50;72804.47;;;-143.60;100.00
68329;BME280;55182;56.864;60.554;2023-08-31T05:51:16;72804.47;;;-143.60;100.00
68329;BME280;55182;56.864;60.554;2023-08-31T05:53:41;72812.50;;;-143.60;100.00
68329;BME280;55182;56.864;60.554;2023-08-31T05:56:07;72814.50;;;-143.60;100.00
68329;BME280;55182;56.864;60.554;2023-08-31T05:58:33;72820.53;;;-143.60;100.00
68329;BME280;55182;56.864;60.554;2023-08-31T06:00:59;72816.50;;;-143.60;100.00
68329;BME280;55182;56.864;60.554;2023-08-31T06:03:24;72812.50;;;-143.60;100.00
68329;BME280;55182;56.864;60.554;2023-08-31T06:05:50;72810.47;;;-143.60;100.00
68329;BME280;55182;56.864;60.554;2023-08-31T06:08:16;72812.50;;;-143.60;100.00
68329;BME280;55182;56.864;60.554;2023-08-31T06:10:41;72808.47;;;-143.60;100.00
68329;BME280;55182;56.864;60.554;2023-08-31T06:13:07;72808.47;;;-143.60;100.00
68329;BME280;55182;56.864;60.554;2023-08-31T06:15:33;72808.47;;;-143.60;100.00
68329;BME280;55182;56.864;60.554;2023-08-31T06:17:58;72816.50;;;-143.60;100.00
68329;BME280;55182;56.864;60.554;2023-08-31T06:20:24;72808.47;;;-143.60;100.00
68329;BME280;55182;56.864;60.554;2023-08-31T06:22:49;72800.44;;;-143.60;100.00
68329;BME280;55182;56.864;60.554;2023-08-31T06:25:15;72798.44;;;-143.60;100.00
68329;BME280;55182;56.864;60.554;2023-08-31T06:27:41;72796.44;;;-143.60;100.00
68329;BME280;55182;56.864;60.554;2023-08-31T06:30:07;72786.38;;;-143.60;100.00
68329;BME280;55182;56.864;60.554;2023-08-31T06:32:33;72786.38;;;-143.60;100.00
68329;BME280;55182;56.864;60.554;2023-08-31T06:34:58;72784.38;;;-143.60;100.00
68329;BME280;55182;56.864;60.554;2023-08-31T06:37:24;72782.38;;;-143.60;100.00
68329;BME280;55182;56.864;60.554;2023-08-31T06:39:49;72788.41;;;-143.60;100.00
68329;BME280;55182;56.864;60.554;2023-08-31T06:42:15;72786.38;;;-143.60;100.00
68329;BME280;55182;56.864;60.554;2023-08-31T06:44:43;72796.44;;;-143.60;100.00
68329;BME280;55182;56.864;60.554;2023-08-31T06:47:08;72788.41;;;-143.60;100.00
68329;BME280;55182;56.864;60.554;2023-08-31T06:49:34;72784.38;;;-143.60;100.00
68329;BME280;55182;56.864;60.554;2023-08-31T06:52:00;72780.38;;;-143.60;100.00
68329;BME280;55182;56.864;60.554;2023-08-31T06:54:26;72778.38;;;-143.60;100.00
68329;BME280;55182;56.864;60.554;2023-08-31T06:56:51;72772.34;;;-143.60;100.00
68329;BME280;55182;56.864;60.554;2023-08-31T06:59:17;72764.31;;;-143.60;100.00
68329;BME280;55182;56.864;60.554;2023-08-31T07:01:43;72752.25;;;-143.60;100.00
68329;BME280;55182;56.864;60.554;2023-08-31T07:04:09;72756.28;;;-143.60;100.00
68329;BME280;55182;56.864;60.554;2023-08-31T07:06:35;72752.25;;;-143.60;100.00
68329;BME280;55182;56.864;60.554;2023-08-31T07:09:00;72760.28;;;-143.60;100.00
68329;BME280;55182;56.864;60.554;2023-08-31T07:11:26;72748.25;;;-143.60;100.00
68329;BME280;55182;56.864;60.554;2023-08-31T07:13:51;72748.25;;;-143.60;100.00
68329;BME280;55182;56.864;60.554;2023-08-31T07:16:17;72754.28;;;-143.60;100.00
68329;BME280;55182;56.864;60.554;2023-08-31T07:18:43;72758.28;;;-143.60;100.00
68329;BME280;55182;56.864;60.554;2023-08-31T07:21:09;72766.31;;;-143.60;100.00
68329;BME280;55182;56.864;60.554;2023-08-31T07:23:34;72762.28;;;-143.60;100.00
68329;BME280;55182;56.864;60.554;2023-08-31T07:25:59;72758.28;;;-143.60;100.00
68329;BME280;55182;56.864;60.554;2023-08-31T07:28:25;72760.28;;;-143.60;100.00
68329;BME280;55182;56.864;60.554;2023-08-31T07:31:00;72760.28;;;-143.60;100.00
68329;BME280;55182;56.864;60.554;2023-08-31T07:33:25;72764.31;;;-143.60;100.00
68329;BME280;55182;56.864;60.554;2023-08-31T07:35:52;72764.31;;;-143.60;100.00
68329;BME280;55182;56.864;60.554;2023-08-31T07:38:18;72764.31;;;-143.60;100.00
68329;BME280;55182;56.864;60.554;2023-08-31T07:40:43;72764.31;;;-143.60;100.00
68329;BME280;55182;56.864;60.554;2023-08-31T07:43:09;72764.31;;;-143.60;100.00
68329;BME280;55182;56.864;60.554;2023-08-31T07:45:34;72768.31;;;-143.60;100.00
68329;BME280;55182;56.864;60.554;2023-08-31T07:48:00;72772.34;;;-143.60;100.00
68329;BME280;55182;56.864;60.554;2023-08-31T07:50:25;72780.38;;;-143.60;100.00
68329;BME280;55182;56.864;60.554;2023-08-31T07:52:50;72788.41;;;-143.60;100.00
68329;BME280;55182;56.864;60.554;2023-08-31T07:55:16;72788.41;;;-143.60;100.00
68329;BME280;55182;56.864;60.554;2023-08-31T07:57:41;72784.38;;;-143.60;100.00
68329;BME280;55182;56.864;60.554;2023-08-31T08:00:07;72782.38;;;-143.60;100.00
68329;BME280;55182;56.864;60.554;2023-08-31T08:02:37;72780.38;;;-143.60;100.00
68329;BME280;55182;56.864;60.554;2023-08-31T08:05:03;72790.41;;;-143.60;100.00
68329;BME280;55182;56.864;60.554;2023-08-31T08:07:29;72784.38;;;-143.60;100.00
68329;BME280;55182;56.864;60.554;2023-08-31T08:09:54;72776.34;;;-143.60;100.00
68329;BME280;55182;56.864;60.554;2023-08-31T08:12:20;72776.34;;;-143.60;100.00
68329;BME280;55182;56.864;60.554;2023-08-31T08:14:45;72768.31;;;-143.60;100.00
68329;BME280;55182;56.864;60.554;2023-08-31T08:17:10;72770.34;;;-143.60;100.00
68329;BME280;55182;56.864;60.554;2023-08-31T08:19:36;72774.34;;;-143.60;100.00
68329;BME280;55182;56.864;60.554;2023-08-31T08:22:02;72780.38;;;-143.60;100.00
68329;BME280;55182;56.864;60.554;2023-08-31T08:24:28;72782.38;;;-143.60;100.00
68329;BME280;55182;56.864;60.554;2023-08-31T08:26:54;72778.38;;;-143.60;100.00
68329;BME280;55182;56.864;60.554;2023-08-31T08:29:19;72776.34;;;-143.60;100.00
68329;BME280;55182;56.864;60.554;2023-08-31T08:31:45;72772.34;;;-143.60;100.00
68329;BME280;55182;56.864;60.554;2023-08-31T08:34:10;72774.34;;;-143.60;100.00
68329;BME280;55182;56.864;60.554;2023-08-31T08:36:36;72776.34;;;-143.60;100.00
68329;BME280;55182;56.864;60.554;2023-08-31T08:39:02;72770.34;;;-143.60;100.00
68329;BME280;55182;56.864;60.554;2023-08-31T08:41:28;72772.34;;;-143.60;100.00
68329;BME280;55182;56.864;60.554;2023-08-31T08:43:54;72772.34;;;-143.60;100.00
68329;BME280;55182;56.864;60.554;2023-08-31T08:46:22;72774.34;;;-143.60;100.00
68329;BME280;55182;56.864;60.554;2023-08-31T08:48:47;72778.38;;;-143.60;100.00
68329;BME280;55182;56.864;60.554;2023-08-31T08:51:13;72780.38;;;-143.60;100.00
68329;BME280;55182;56.864;60.554;2023-08-31T08:53:42;72778.38;;;-143.60;100.00
68329;BME280;55182;56.864;60.554;2023-08-31T08:56:08;72774.34;;;-143.60;100.00
68329;BME280;55182;56.864;60.554;2023-08-31T08:58:34;72770.34;;;-143.60;100.00
68329;BME280;55182;56.864;60.554;2023-08-31T09:01:00;72774.34;;;-143.60;100.00
68329;BME280;55182;56.864;60.554;2023-08-31T09:03:27;72784.38;;;-143.60;100.00
68329;BME280;55182;56.864;60.554;2023-08-31T09:05:53;72782.38;;;-143.60;100.00
68329;BME280;55182;56.864;60.554;2023-08-31T09:08:25;72784.38;;;-143.60;100.00
68329;BME280;55182;56.864;60.554;2023-08-31T09:10:51;72794.44;;;-143.60;100.00
68329;BME280;55182;56.864;60.554;2023-08-31T09:13:17;72800.44;;;-143.60;100.00
68329;BME280;55182;56.864;60.554;2023-08-31T09:15:47;72804.47;;;-143.60;100.00
68329;BME280;55182;56.864;60.554;2023-08-31T09:20:48;72804.47;;;-143.60;100.00
68329;BME280;55182;56.864;60.554;2023-08-31T09:23:15;72802.47;;;-143.60;100.00
68329;BME280;55182;56.864;60.554;2023-08-31T09:25:45;72790.41;;;-143.60;100.00
68329;BME280;55182;56.864;60.554;2023-08-31T09:28:14;72780.38;;;-143.60;100.00
68329;BME280;55182;56.864;60.554;2023-08-31T09:30:40;72762.28;;;-143.60;100.00
68329;BME280;55182;56.864;60.554;2023-08-31T09:33:06;72748.25;;;-143.60;100.00
68329;BME280;55182;56.864;60.554;2023-08-31T09:35:32;72732.19;;;-143.60;100.00
68329;BME280;55182;56.864;60.554;2023-08-31T09:37:57;72732.19;;;-143.60;100.00
68329;BME280;55182;56.864;60.554;2023-08-31T09:40:23;72736.19;;;-143.60;100.00
68329;BME280;55182;56.864;60.554;2023-08-31T09:42:51;72734.19;;;-143.60;100.00
68329;BME280;55182;56.864;60.554;2023-08-31T09:45:38;72744.22;;;-143.60;100.00
68329;BME280;55182;56.864;60.554;2023-08-31T09:48:03;72752.25;;;-143.60;100.00
68329;BME280;55182;56.864;60.554;2023-08-31T09:50:29;72754.28;;;-143.60;100.00
68329;BME280;55182;56.864;60.554;2023-08-31T09:52:55;72768.31;;;-143.60;100.00
68329;BME280;55182;56.864;60.554;2023-08-31T09:55:21;72770.34;;;-143.60;100.00
68329;BME280;55182;56.864;60.554;2023-08-31T09:57:49;72776.34;;;-143.60;100.00
68329;BME280;55182;56.864;60.554;2023-08-31T10:00:15;72780.38;;;-143.60;100.00
68329;BME280;55182;56.864;60.554;2023-08-31T10:02:42;72780.38;;;-143.60;100.00
68329;BME280;55182;56.864;60.554;2023-08-31T10:05:08;72784.38;;;-143.60;100.00
68329;BME280;55182;56.864;60.554;2023-08-31T10:07:33;72796.44;;;-143.60;100.00
68329;BME280;55182;56.864;60.554;2023-08-31T10:09:59;72776.34;;;-143.60;100.00
68329;BME280;55182;56.864;60.554;2023-08-31T10:12:26;72770.34;;;-143.60;100.00
68329;BME280;55182;56.864;60.554;2023-08-31T10:14:53;72770.34;;;-143.60;100.00
68329;BME280;55182;56.864;60.554;2023-08-31T10:17:19;72776.34;;;-143.60;100.00
68329;BME280;55182;56.864;60.554;2023-08-31T10:19:45;72784.38;;;-143.60;100.00
68329;BME280;55182;56.864;60.554;2023-08-31T10:22:11;72790.41;;;-143.60;100.00
68329;BME280;55182;56.864;60.554;2023-08-31T10:27:22;72768.31;;;-143.60;99.70
68329;BME280;55182;56.864;60.554;2023-08-31T10:29:48;72736.19;;;-143.60;98.87
68329;BME280;55182;56.864;60.554;2023-08-31T10:32:17;72710.09;;;-143.60;96.66
68329;BME280;55182;56.864;60.554;2023-08-31T10:34:43;72690.03;;;-143.60;94.47
68329;BME280;55182;56.864;60.554;2023-08-31T10:37:21;72675.97;;;-143.60;92.89
68329;BME280;55182;56.864;60.554;2023-08-31T10:39:47;72679.97;;;-143.60;91.85
68329;BME280;55182;56.864;60.554;2023-08-31T10:42:13;72712.09;;;-143.60;91.33
68329;BME280;55182;56.864;60.554;2023-08-31T10:44:41;72748.25;;;-143.60;92.19
68329;BME280;55182;56.864;60.554;2023-08-31T10:47:07;72772.34;;;-143.60;93.11
68329;BME280;55182;56.864;60.554;2023-08-31T10:49:33;72796.44;;;-143.60;94.93
68329;BME280;55182;56.864;60.554;2023-08-31T10:54:56;72796.44;;;-143.60;96.06
68329;BME280;55182;56.864;60.554;2023-08-31T10:57:31;72778.38;;;-143.60;95.06
68329;BME280;55182;56.864;60.554;2023-08-31T10:59:57;72772.34;;;-143.60;94.12
68329;BME280;55182;56.864;60.554;2023-08-31T11:03:04;72776.34;;;-143.60;94.32
68329;BME280;55182;56.864;60.554;2023-08-31T11:05:14;72772.34;;;-143.60;95.76
68329;BME280;55182;56.864;60.554;2023-08-31T11:07:49;72776.34;;;-143.60;93.75
68329;BME280;55182;56.864;60.554;2023-08-31T11:10:22;72788.41;;;-143.60;92.73
68329;BME280;55182;56.864;60.554;2023-08-31T11:12:49;72798.44;;;-143.60;93.95
68329;BME280;55182;56.864;60.554;2023-08-31T11:15:15;72808.47;;;-143.60;94.73
68329;BME280;55182;56.864;60.554;2023-08-31T11:17:41;72816.50;;;-143.60;95.69
68329;BME280;55182;56.864;60.554;2023-08-31T11:20:13;72822.53;;;-143.60;96.32
68329;BME280;55182;56.864;60.554;2023-08-31T11:22:39;72832.56;;;-143.60;97.57
68329;BME280;55182;56.864;60.554;2023-08-31T11:25:07;72848.63;;;-143.60;97.61
68329;BME280;55182;56.864;60.554;2023-08-31T11:27:32;72854.66;;;-143.60;97.38
68329;BME280;55182;56.864;60.554;2023-08-31T11:29:58;72868.72;;;-143.60;96.58
68329;BME280;55182;56.864;60.554;2023-08-31T11:32:23;72874.75;;;-143.60;96.14
68329;BME280;55182;56.864;60.554;2023-08-31T11:34:49;72876.75;;;-143.60;96.61
68329;BME280;55182;56.864;60.554;2023-08-31T11:37:15;72872.72;;;-143.60;95.87
68329;BME280;55182;56.864;60.554;2023-08-31T11:39:42;72854.66;;;-143.60;94.87
68329;BME280;55182;56.864;60.554;2023-08-31T11:42:07;72842.63;;;-143.60;93.80
68329;BME280;55182;56.864;60.554;2023-08-31T11:44:33;72824.53;;;-143.60;91.99
68329;BME280;55182;56.864;60.554;2023-08-31T11:46:59;72784.38;;;-143.60;91.49
68329;BME280;55182;56.864;60.554;2023-08-31T11:49:26;72756.28;;;-143.60;91.35
68329;BME280;55182;56.864;60.554;2023-08-31T11:51:52;72734.19;;;-143.60;91.10
68329;BME280;55182;56.864;60.554;2023-08-31T11:54:18;72728.16;;;-143.60;90.93
68329;BME280;55182;56.864;60.554;2023-08-31T11:56:44;72714.13;;;-143.60;88.89
68329;BME280;55182;56.864;60.554;2023-08-31T11:59:10;72732.19;;;-143.60;84.85
68329;BME280;55182;56.864;60.554;2023-08-31T12:01:39;72756.28;;;-143.60;86.14
68329;BME280;55182;56.864;60.554;2023-08-31T12:04:12;72770.34;;;-143.60;86.00
68329;BME280;55182;56.864;60.554;2023-08-31T12:06:37;72728.16;;;-143.60;84.49
68329;BME280;55182;56.864;60.554;2023-08-31T12:09:04;72663.91;;;-143.60;83.02
68329;BME280;55182;56.864;60.554;2023-08-31T12:11:31;72647.84;;;-143.60;82.58
68329;BME280;55182;56.864;60.554;2023-08-31T12:14:00;72549.47;;;-143.60;80.41
68329;BME280;55182;56.864;60.554;2023-08-31T12:16:35;72465.16;;;-143.60;76.56
68329;BME280;55182;56.864;60.554;2023-08-31T12:19:02;72467.16;;;-143.60;76.19
68329;BME280;55182;56.864;60.554;2023-08-31T12:21:28;72479.22;;;-143.60;74.30
68329;BME280;55182;56.864;60.554;2023-08-31T12:23:53;72523.38;;;-143.60;73.82
68329;BME280;55182;56.864;60.554;2023-08-31T12:26:19;72487.25;;;-143.60;72.23
68329;BME280;55182;56.864;60.554;2023-08-31T12:28:45;72418.97;;;-143.60;70.25
68329;BME280;55182;56.864;60.554;2023-08-31T12:31:10;72451.09;;;-143.60;71.47